Time;durP1;ratioP1;P1;durP2;ratioP2;P2;SDS_P1;SDS_P2;PMS_P1;PMS_P2;Temp;Humidity;BMP_temperature;BMP_pressure;BME280_temperature;BME280_humidity;BME280_pressure;Samples;Min_cycle;Max_cycle;Signal;HPM_P1;HPM_P2
2022/03/16 00:01:04;;;;;;;22.57;17.87;;;5.80;99.90;;;;;;10453241;28;20219;-71
2022/03/16 00:06:05;;;;;;;21.63;17.83;;;5.70;99.90;;;;;;10450835;28;20311;-71
2022/03/16 00:11:06;;;;;;;19.63;16.33;;;5.70;99.90;;;;;;10452672;28;20662;-70
2022/03/16 00:16:06;;;;;;;21.93;18.00;;;5.60;99.90;;;;;;10433020;28;20228;-72
2022/03/16 00:21:08;;;;;;;22.07;18.97;;;5.50;99.90;;;;;;10445670;28;20219;-72
2022/03/16 00:26:09;;;;;;;25.13;20.70;;;5.40;99.90;;;;;;10450615;28;20285;-71
2022/03/16 00:31:09;;;;;;;23.10;20.07;;;5.50;99.90;;;;;;10450868;28;20273;-70
2022/03/16 00:36:10;;;;;;;25.17;20.57;;;5.40;99.90;;;;;;10451423;28;20318;-71
2022/03/16 00:41:12;;;;;;;24.53;21.03;;;5.40;99.90;;;;;;10451465;28;20314;-70
2022/03/16 00:46:13;;;;;;;22.07;18.63;;;5.50;99.90;;;;;;10426136;28;20330;-71
2022/03/16 00:51:13;;;;;;;27.53;21.33;;;5.70;99.90;;;;;;10451418;28;20319;-70
2022/03/16 00:56:14;;;;;;;23.60;19.97;;;5.80;99.90;;;;;;10443329;28;20268;-71
2022/03/16 01:01:15;;;;;;;28.77;21.13;;;5.90;99.90;;;;;;10450150;28;20232;-73
2022/03/16 01:06:16;;;;;;;21.43;18.63;;;6.00;99.90;;;;;;10450717;28;20234;-73
2022/03/16 01:11:16;;;;;;;27.50;22.33;;;6.10;99.90;;;;;;10450964;28;20235;-70
2022/03/16 01:16:21;;;;;;;29.50;22.33;;;6.00;99.90;;;;;;10452065;28;20235;-71
2022/03/16 01:21:22;;;;;;;33.83;27.40;;;6.10;99.90;;;;;;10450578;28;20212;-71
2022/03/16 01:26:29;;;;;;;41.97;28.60;;;6.30;99.90;;;;;;10451040;28;20232;-72
2022/03/16 01:31:33;;;;;;;36.17;28.10;;;6.30;99.90;;;;;;10450474;28;20227;-72
2022/03/16 01:36:34;;;;;;;37.43;28.23;;;6.40;99.90;;;;;;10449436;28;20235;-72
2022/03/16 01:41:35;;;;;;;35.43;27.47;;;6.50;99.90;;;;;;10450113;28;20321;-72
2022/03/16 01:46:37;;;;;;;35.90;28.30;;;6.60;99.90;;;;;;10449955;28;20730;-70
2022/03/16 01:51:37;;;;;;;37.10;27.80;;;6.60;99.90;;;;;;10448637;28;20235;-71
2022/03/16 01:56:38;;;;;;;34.27;28.10;;;6.60;99.90;;;;;;10430806;28;20627;-69
2022/03/16 02:01:39;;;;;;;36.33;29.43;;;6.70;99.90;;;;;;10448961;28;20226;-72
2022/03/16 02:06:45;;;;;;;36.30;28.53;;;6.70;99.90;;;;;;10450449;28;20262;-71
2022/03/16 02:11:46;;;;;;;35.00;28.83;;;6.70;99.90;;;;;;10449696;28;20235;-71
2022/03/16 02:16:48;;;;;;;37.60;29.13;;;6.70;99.90;;;;;;10451339;28;20219;-70
2022/03/16 02:22:08;;;;;;;37.63;28.67;;;6.70;99.90;;;;;;10457474;28;20219;-69
2022/03/16 02:27:11;;;;;;;35.00;28.33;;;6.70;99.90;;;;;;10454799;28;20284;-70
2022/03/16 02:32:14;;;;;;;36.13;29.00;;;6.70;99.90;;;;;;10453418;28;20675;-70
2022/03/16 02:37:14;;;;;;;36.70;29.43;;;6.60;99.90;;;;;;10448932;28;20224;-71
2022/03/16 02:42:15;;;;;;;37.33;28.80;;;6.50;99.90;;;;;;10456200;28;20645;-70
2022/03/16 02:47:19;;;;;;;38.83;29.93;;;6.40;99.90;;;;;;10438433;28;20227;-71
2022/03/16 02:52:21;;;;;;;35.07;28.50;;;6.50;99.90;;;;;;10455327;28;20230;-70
2022/03/16 02:57:22;;;;;;;33.93;26.93;;;6.40;99.90;;;;;;10455907;28;20226;-71
2022/03/16 03:02:29;;;;;;;34.27;28.77;;;6.40;99.90;;;;;;10454364;28;20223;-74
2022/03/16 03:07:30;;;;;;;34.43;28.00;;;6.40;99.90;;;;;;10454886;28;20231;-71
2022/03/16 03:12:41;;;;;;;37.37;28.67;;;6.40;99.90;;;;;;10419658;28;20651;-71
2022/03/16 03:17:43;;;;;;;37.20;28.43;;;6.40;99.90;;;;;;10453331;28;20226;-70
2022/03/16 03:22:43;;;;;;;33.73;26.70;;;6.40;99.90;;;;;;10438615;28;20230;-71
2022/03/16 03:27:45;;;;;;;34.83;28.50;;;6.30;99.90;;;;;;10454553;28;20222;-72
2022/03/16 03:32:46;;;;;;;33.37;27.57;;;6.30;99.90;;;;;;10454414;28;20706;-71
2022/03/16 03:37:51;;;;;;;35.73;27.70;;;6.30;99.90;;;;;;10455707;28;20224;-71
2022/03/16 03:42:51;;;;;;;34.00;27.43;;;6.40;99.90;;;;;;10437568;28;20216;-72
2022/03/16 03:47:52;;;;;;;32.57;26.63;;;6.50;99.90;;;;;;10454560;28;20974;-71
2022/03/16 03:52:53;;;;;;;30.90;25.07;;;6.50;99.90;;;;;;10455051;28;20303;-70
2022/03/16 03:57:53;;;;;;;32.63;26.23;;;6.60;99.90;;;;;;10435436;28;20716;-70
2022/03/16 04:02:56;;;;;;;32.23;25.53;;;6.60;99.90;;;;;;10435780;28;20295;-70
2022/03/16 04:07:57;;;;;;;30.50;26.40;;;6.50;99.90;;;;;;10451398;28;20223;-70
2022/03/16 04:12:57;;;;;;;34.30;27.07;;;6.50;99.90;;;;;;10452915;28;20216;-69
2022/03/16 04:18:11;;;;;;;32.10;24.97;;;6.50;99.90;;;;;;10460520;28;20231;-70
2022/03/16 04:23:11;;;;;;;34.80;26.30;;;6.30;99.90;;;;;;10456428;28;20224;-70
2022/03/16 04:28:12;;;;;;;33.17;26.20;;;6.10;99.90;;;;;;10453795;28;20230;-70
2022/03/16 04:33:13;;;;;;;37.10;27.53;;;6.00;99.90;;;;;;10452264;28;20883;-71
2022/03/16 04:38:13;;;;;;;36.10;26.83;;;6.00;99.90;;;;;;10450270;28;20312;-71
2022/03/16 04:43:14;;;;;;;35.33;27.73;;;5.90;99.90;;;;;;10433646;28;20686;-71
2022/03/16 04:48:17;;;;;;;47.67;28.80;;;5.90;99.90;;;;;;10438534;28;20410;-73
2022/03/16 04:53:18;;;;;;;41.00;29.47;;;6.00;99.90;;;;;;10452754;28;20224;-72
2022/03/16 04:58:18;;;;;;;40.37;29.67;;;5.90;99.90;;;;;;10451864;28;20219;-71
2022/03/16 05:03:20;;;;;;;41.23;30.47;;;6.00;99.90;;;;;;10452544;28;20223;-70
2022/03/16 05:08:21;;;;;;;41.17;30.63;;;6.00;99.90;;;;;;10450914;28;20220;-70
2022/03/16 05:13:21;;;;;;;39.87;29.63;;;6.10;99.90;;;;;;10449190;28;20215;-71
2022/03/16 05:18:26;;;;;;;39.23;29.03;;;6.00;99.90;;;;;;10450786;28;20311;-70
2022/03/16 05:23:26;;;;;;;42.40;30.83;;;5.90;99.90;;;;;;10429915;28;20249;-69
2022/03/16 05:28:27;;;;;;;43.53;31.80;;;5.90;99.90;;;;;;10447784;28;20231;-71
2022/03/16 05:33:28;;;;;;;44.20;31.37;;;6.00;99.90;;;;;;10431454;28;20218;-70
2022/03/16 05:38:31;;;;;;;45.13;31.40;;;5.90;99.90;;;;;;10448651;28;20227;-70
2022/03/16 05:43:32;;;;;;;41.17;29.30;;;5.90;99.90;;;;;;10447392;28;20224;-70
2022/03/16 05:48:32;;;;;;;44.60;30.30;;;5.80;99.90;;;;;;10447100;28;20224;-73
2022/03/16 05:53:36;;;;;;;43.50;30.80;;;5.80;99.90;;;;;;10446519;28;20304;-71
2022/03/16 05:58:36;;;;;;;44.67;30.87;;;5.80;99.90;;;;;;10430996;28;20232;-71
2022/03/16 06:03:37;;;;;;;38.90;28.47;;;5.90;99.90;;;;;;10449156;28;20230;-71
2022/03/16 06:08:37;;;;;;;39.43;28.40;;;5.90;99.90;;;;;;10455708;28;20764;-70
2022/03/16 06:13:38;;;;;;;41.87;28.67;;;5.90;99.90;;;;;;10446923;28;20273;-72
2022/03/16 06:18:38;;;;;;;36.10;26.13;;;6.00;99.90;;;;;;10447607;28;20286;-73
2022/03/16 06:23:39;;;;;;;34.10;25.80;;;6.00;99.90;;;;;;10429696;28;20250;-72
2022/03/16 06:28:39;;;;;;;34.90;26.03;;;6.10;99.90;;;;;;10449008;28;20239;-73
2022/03/16 06:33:40;;;;;;;33.30;24.93;;;6.20;99.90;;;;;;10449795;28;20220;-72
2022/03/16 06:38:41;;;;;;;31.30;24.43;;;6.30;99.90;;;;;;10444593;28;20257;-74
2022/03/16 06:43:41;;;;;;;30.83;23.53;;;6.30;99.90;;;;;;10446995;28;20224;-74
2022/03/16 06:48:44;;;;;;;32.67;23.57;;;6.30;99.90;;;;;;10433367;28;20231;-73
2022/03/16 06:53:45;;;;;;;32.47;23.33;;;6.40;99.90;;;;;;10446575;28;20266;-73
2022/03/16 06:58:45;;;;;;;30.77;23.70;;;6.40;99.90;;;;;;10447968;28;20329;-74
2022/03/16 07:03:46;;;;;;;29.60;23.00;;;6.40;99.90;;;;;;10451040;28;20227;-74
2022/03/16 07:08:50;;;;;;;27.53;22.97;;;6.50;99.90;;;;;;10453213;28;20228;-75
2022/03/16 07:19:09;;;;;;;29.97;21.97;;;6.70;99.90;;;;;;10451860;28;20223;-74
2022/03/16 07:24:12;;;;;;;24.40;19.33;;;6.90;99.90;;;;;;10456489;28;20219;-73
2022/03/16 07:29:21;;;;;;;23.43;19.83;;;7.10;99.90;;;;;;10435287;28;20227;-72
2022/03/16 07:34:26;;;;;;;23.33;18.80;;;7.50;99.90;;;;;;10445366;28;20265;-73
2022/03/16 07:39:27;;;;;;;21.97;18.00;;;8.30;99.90;;;;;;10449362;28;20219;-75
2022/03/16 07:44:37;;;;;;;21.20;17.63;;;8.70;99.90;;;;;;10431552;28;20235;-73
2022/03/16 07:49:38;;;;;;;19.87;17.23;;;9.10;99.90;;;;;;10444080;28;20231;-70
2022/03/16 07:54:41;;;;;;;18.90;16.07;;;9.40;99.90;;;;;;10452830;28;20212;-71
2022/03/16 07:59:43;;;;;;;15.47;13.83;;;10.20;99.90;;;;;;10433588;28;20691;-74
2022/03/16 08:04:48;;;;;;;16.10;13.80;;;11.60;99.90;;;;;;10448643;28;20655;-73
2022/03/16 08:09:52;;;;;;;15.27;13.63;;;12.90;99.90;;;;;;10449460;28;20216;-72
2022/03/16 08:14:56;;;;;;;16.67;12.97;;;14.20;99.90;;;;;;10433123;28;20695;-72
2022/03/16 08:20:04;;;;;;;14.30;12.93;;;14.50;99.90;;;;;;10450721;28;21036;-73
2022/03/16 08:25:07;;;;;;;15.23;13.07;;;14.70;99.90;;;;;;10450109;28;20307;-74
2022/03/16 08:30:09;;;;;;;14.80;13.30;;;13.20;99.90;;;;;;10451687;28;20273;-72
2022/03/16 08:35:11;;;;;;;13.73;12.03;;;12.60;99.90;;;;;;10448649;28;20183;-73
2022/03/16 08:40:16;;;;;;;13.33;12.00;;;13.80;99.90;;;;;;10443953;28;20535;-72
2022/03/16 08:45:17;;;;;;;13.30;12.00;;;15.70;99.90;;;;;;10432871;28;20206;-73
2022/03/16 08:50:17;;;;;;;13.30;11.90;;;16.80;98.80;;;;;;10451072;28;20238;-73
2022/03/16 08:55:18;;;;;;;13.07;11.77;;;17.20;95.60;;;;;;10449603;28;20245;-73
2022/03/16 09:00:19;;;;;;;12.63;11.53;;;17.40;94.50;;;;;;10447535;28;20255;-73
2022/03/16 09:05:19;;;;;;;12.17;11.07;;;17.20;91.80;;;;;;10450323;28;20554;-73
2022/03/16 09:10:20;;;;;;;13.30;12.03;;;17.60;89.50;;;;;;10430786;28;20718;-73
2022/03/16 09:15:21;;;;;;;13.13;11.93;;;18.60;85.10;;;;;;10447134;28;20191;-74
2022/03/16 09:20:24;;;;;;;12.53;11.20;;;17.20;89.50;;;;;;10431774;28;20206;-73
2022/03/16 09:25:25;;;;;;;12.90;11.80;;;17.40;90.50;;;;;;10450130;28;20219;-73
2022/03/16 09:30:33;;;;;;;13.20;12.00;;;17.70;90.40;;;;;;10449566;28;20231;-73
2022/03/16 09:35:35;;;;;;;12.27;11.07;;;19.10;82.40;;;;;;10446761;28;20220;-72
2022/03/16 09:40:36;;;;;;;13.30;12.20;;;19.60;79.20;;;;;;10446723;28;20262;-72
2022/03/16 09:45:54;;;;;;;12.97;11.77;;;20.00;75.90;;;;;;10431317;28;20224;-73
2022/03/16 09:50:58;;;;;;;11.20;10.20;;;20.70;72.30;;;;;;10447551;28;20778;-72
2022/03/16 09:56:01;;;;;;;10.07;9.07;;;21.10;68.00;;;;;;10448266;28;20761;-73
2022/03/16 10:01:08;;;;;;;10.47;9.47;;;20.90;61.90;;;;;;10431361;28;20209;-72
2022/03/16 10:06:16;;;;;;;10.33;9.43;;;20.30;62.00;;;;;;10448249;28;20216;-73
2022/03/16 10:22:25;;;;;;;9.53;8.63;;;20.40;58.80;;;;;;10453369;28;20665;-73
2022/03/16 10:27:26;;;;;;;9.37;8.47;;;18.80;62.40;;;;;;10448888;28;20223;-72
2022/03/16 10:32:39;;;;;;;;;;;;;;;;;;;;;
2022/03/16 10:37:40;;;;;;;8.20;7.40;;;19.00;65.90;;;;;;10453307;28;20589;-74
2022/03/16 10:48:12;;;;;;;10.53;9.20;;;21.80;56.10;;;;;;10463600;28;20231;-73
2022/03/16 10:53:16;;;;;;;9.63;8.83;;;20.20;58.70;;;;;;10439110;28;20224;-73
2022/03/16 10:58:18;;;;;;;9.37;8.57;;;21.50;57.20;;;;;;10433710;28;20224;-72
2022/03/16 11:03:23;;;;;;;9.70;8.70;;;21.30;56.60;;;;;;10453123;28;20231;-73
2022/03/16 11:08:26;;;;;;;8.90;7.60;;;21.20;57.50;;;;;;10454531;28;20243;-73
2022/03/16 11:13:32;;;;;;;9.83;8.93;;;22.60;56.30;;;;;;10454141;28;20274;-73
2022/03/16 11:18:33;;;;;;;10.30;9.40;;;22.00;53.50;;;;;;10453837;28;20224;-73
2022/03/16 11:29:00;;;;;;;9.37;8.47;;;21.50;56.00;;;;;;10454382;28;20698;-73
2022/03/16 11:34:08;;;;;;;10.33;9.37;;;21.30;56.50;;;;;;10433302;28;20223;-72
2022/03/16 11:39:15;;;;;;;11.13;9.50;;;18.50;63.80;;;;;;10451233;28;20607;-72
2022/03/16 11:44:28;;;;;;;10.17;9.27;;;16.70;70.70;;;;;;10444288;28;20896;-72
2022/03/16 11:49:29;;;;;;;11.30;10.10;;;16.00;75.60;;;;;;10434769;28;20224;-72
2022/03/16 11:54:41;;;;;;;11.30;10.23;;;15.60;79.20;;;;;;10447006;28;20780;-73
2022/03/16 11:59:45;;;;;;;11.00;10.00;;;15.80;78.90;;;;;;10458273;28;20228;-73
2022/03/16 12:04:46;;;;;;;11.73;10.53;;;15.70;80.70;;;;;;10451522;28;20219;-73
2022/03/16 12:10:01;;;;;;;11.00;9.93;;;15.40;82.20;;;;;;10433669;28;20240;-72
2022/03/16 12:15:10;;;;;;;12.93;9.87;;;15.00;84.20;;;;;;10452382;28;20737;-72
2022/03/16 12:20:13;;;;;;;11.10;10.00;;;14.90;84.70;;;;;;10433832;28;20589;-73
2022/03/16 12:25:25;;;;;;;10.97;9.93;;;14.90;86.40;;;;;;10452121;28;20203;-74
2022/03/16 12:30:27;;;;;;;9.47;8.47;;;14.90;88.40;;;;;;10444133;28;20235;-75
2022/03/16 12:35:34;;;;;;;10.70;9.70;;;15.40;85.40;;;;;;10460351;28;20231;-73
2022/03/16 12:46:36;;;;;;;10.30;9.30;;;15.70;85.10;;;;;;10441491;28;20223;-74
2022/03/16 12:51:44;;;;;;;11.10;10.10;;;15.60;84.30;;;;;;10446174;28;20730;-74
2022/03/16 12:56:50;;;;;;;8.97;8.17;;;16.20;85.40;;;;;;10437971;28;20231;-73
2022/03/16 13:01:51;;;;;;;12.13;11.00;;;16.20;85.10;;;;;;10434252;28;20317;-73
2022/03/16 13:06:57;;;;;;;11.90;10.13;;;15.80;86.30;;;;;;10450167;28;20220;-74
2022/03/16 13:12:01;;;;;;;11.67;10.53;;;15.20;89.40;;;;;;10429458;28;20737;-73
2022/03/16 13:17:05;;;;;;;10.93;9.93;;;14.80;90.70;;;;;;10455040;28;20274;-73
2022/03/16 13:22:09;;;;;;;10.63;9.63;;;14.50;90.60;;;;;;10440871;28;20902;-74
2022/03/16 13:27:19;;;;;;;10.63;9.03;;;14.60;91.30;;;;;;10439924;28;20220;-74
2022/03/16 13:32:35;;;;;;;10.20;9.20;;;14.90;90.70;;;;;;10447202;28;20242;-72
2022/03/16 13:37:39;;;;;;;11.27;10.17;;;15.00;90.70;;;;;;10447807;28;20643;-74
2022/03/16 13:42:44;;;;;;;10.93;9.83;;;15.00;90.10;;;;;;10447891;28;20929;-75
2022/03/16 13:48:10;;;;;;;11.43;10.33;;;15.00;90.50;;;;;;10447504;28;20232;-74
2022/03/16 13:53:22;;;;;;;12.13;10.93;;;14.80;92.10;;;;;;10463499;28;20585;-74
2022/03/16 13:58:28;;;;;;;13.87;11.10;;;14.90;92.30;;;;;;10419287;28;20212;-74
2022/03/16 14:03:30;;;;;;;12.90;11.63;;;14.90;92.80;;;;;;10462563;28;20297;-74
2022/03/16 14:08:31;;;;;;;12.83;11.30;;;14.80;93.30;;;;;;10447765;28;20220;-73
2022/03/16 14:13:43;;;;;;;12.90;11.47;;;14.60;93.60;;;;;;10428413;28;20212;-75
2022/03/16 14:18:44;;;;;;;14.03;12.60;;;14.50;94.40;;;;;;10454825;28;20230;-74
2022/03/16 14:23:47;;;;;;;13.27;11.97;;;14.50;95.00;;;;;;10463922;28;20219;-74
2022/03/16 14:28:50;;;;;;;13.00;11.80;;;14.50;95.10;;;;;;10457470;28;20942;-75
2022/03/16 14:33:51;;;;;;;13.73;12.43;;;14.60;95.50;;;;;;10436955;28;20219;-74
2022/03/16 14:38:53;;;;;;;13.53;12.13;;;14.40;95.30;;;;;;10438764;28;20212;-75
2022/03/16 14:43:55;;;;;;;13.20;11.90;;;14.40;95.50;;;;;;10442127;28;20216;-77
2022/03/16 14:48:56;;;;;;;13.53;12.20;;;14.40;95.50;;;;;;10442863;28;20230;-75
2022/03/16 14:54:08;;;;;;;14.67;13.27;;;14.30;95.90;;;;;;10459793;28;20242;-74
2022/03/16 14:59:13;;;;;;;15.20;12.67;;;14.40;95.80;;;;;;10459011;28;20224;-76
2022/03/16 15:04:18;;;;;;;15.07;13.57;;;14.40;96.00;;;;;;10422083;28;20224;-74
2022/03/16 15:09:19;;;;;;;13.77;12.37;;;14.40;96.30;;;;;;10421285;28;20319;-74
2022/03/16 15:14:22;;;;;;;14.57;13.17;;;14.40;96.40;;;;;;10452664;28;20323;-74
2022/03/16 15:19:22;;;;;;;13.50;12.20;;;14.50;96.60;;;;;;10451404;28;20216;-75
2022/03/16 15:24:30;;;;;;;15.23;13.73;;;14.40;96.70;;;;;;10452412;28;20303;-74
2022/03/16 15:29:31;;;;;;;13.77;12.47;;;14.40;97.20;;;;;;10442151;28;20225;-74
2022/03/16 15:34:40;;;;;;;15.63;14.03;;;14.20;97.10;;;;;;10436710;28;20215;-75
2022/03/16 15:42:38;;;;;;;15.60;14.00;;;14.10;97.30;;;;;;10436262;28;20224;-75
2022/03/16 15:45:04;;;;;;;15.70;13.13;;;14.10;97.40;;;;;;10452691;28;20311;-75
2022/03/16 15:55:29;;;;;;;18.27;16.45;;;14.00;98.60;;;;;;10438604;28;20407;-74
2022/03/16 16:00:32;;;;;;;18.95;17.05;;;14.00;99.20;;;;;;10426761;28;20786;-74
2022/03/16 16:05:34;;;;;;;16.80;15.10;;;13.90;99.40;;;;;;10419279;28;20224;-76
2022/03/16 16:10:36;;;;;;;17.60;15.80;;;13.90;99.90;;;;;;10438168;28;20250;-75
2022/03/16 16:15:55;;;;;;;17.03;15.33;;;13.90;99.90;;;;;;10425362;28;20659;-76
2022/03/16 16:20:56;;;;;;;17.20;15.33;;;13.80;99.90;;;;;;10428230;28;20310;-76
2022/03/16 16:25:59;;;;;;;17.43;15.73;;;13.70;99.90;;;;;;10440816;28;20280;-74
2022/03/16 16:31:01;;;;;;;18.20;16.07;;;13.60;99.90;;;;;;10432194;28;20225;-74
2022/03/16 16:36:11;;;;;;;18.60;16.63;;;13.50;99.90;;;;;;10433600;28;20233;-74
2022/03/16 16:41:15;;;;;;;18.43;16.53;;;13.50;99.90;;;;;;10437667;28;20229;-74
2022/03/16 16:46:16;;;;;;;18.23;16.43;;;13.40;99.90;;;;;;10428213;28;20219;-74
2022/03/16 16:51:28;;;;;;;;;;;;;;;;;;;;;
2022/03/16 16:56:31;;;;;;;18.63;16.73;;;13.20;99.90;;;;;;10435368;28;20223;-74
2022/03/16 17:01:35;;;;;;;18.93;16.93;;;13.10;99.90;;;;;;10436599;28;20228;-72
2022/03/16 17:06:38;;;;;;;19.83;17.73;;;13.00;99.90;;;;;;10433118;28;20251;-73
2022/03/16 17:11:44;;;;;;;18.90;16.97;;;12.90;99.90;;;;;;10415879;28;20238;-76
2022/03/16 17:16:46;;;;;;;19.67;17.00;;;12.90;99.90;;;;;;10434082;28;20228;-77
2022/03/16 17:21:51;;;;;;;20.17;17.97;;;12.80;99.90;;;;;;10432564;28;20242;-77
2022/03/16 17:27:03;;;;;;;19.27;17.27;;;12.80;99.90;;;;;;10431599;28;20320;-75
2022/03/16 17:32:09;;;;;;;20.80;17.30;;;12.80;99.90;;;;;;10436009;28;20289;-71
2022/03/16 17:37:09;;;;;;;19.93;17.83;;;12.70;99.90;;;;;;10428217;28;20219;-73
2022/03/16 17:47:29;;;;;;;20.27;18.00;;;12.60;99.90;;;;;;10439444;28;20228;-73
2022/03/16 17:52:34;;;;;;;19.07;17.17;;;12.60;99.90;;;;;;10445801;28;20680;-73
2022/03/16 17:57:35;;;;;;;22.10;17.67;;;12.60;99.90;;;;;;10447476;28;20786;-73
2022/03/16 18:02:38;;;;;;;20.30;17.77;;;12.50;99.90;;;;;;10446005;28;20222;-74
2022/03/16 18:07:41;;;;;;;20.07;17.97;;;12.50;99.90;;;;;;10444120;28;20219;-73
2022/03/16 18:13:02;;;;;;;22.70;20.65;;;12.50;99.90;;;;;;10443069;28;20424;-74
2022/03/16 18:18:03;;;;;;;20.00;18.00;;;12.50;99.90;;;;;;10445738;28;20686;-71
2022/03/16 18:23:06;;;;;;;19.77;17.77;;;12.40;99.90;;;;;;10424575;28;20277;-72
2022/03/16 18:28:09;;;;;;;19.97;17.77;;;12.40;99.90;;;;;;10445725;28;20227;-72
2022/03/16 18:33:09;;;;;;;22.17;19.33;;;12.40;99.90;;;;;;10443980;28;20219;-72
2022/03/16 18:38:13;;;;;;;20.43;18.00;;;12.40;99.90;;;;;;10446105;28;20330;-74
2022/03/16 18:43:21;;;;;;;20.67;18.27;;;12.30;99.90;;;;;;10445052;28;20216;-74
2022/03/16 18:48:27;;;;;;;19.40;17.40;;;12.30;99.90;;;;;;10414936;28;20228;-73
2022/03/16 18:53:32;;;;;;;20.50;18.30;;;12.20;99.90;;;;;;10445461;28;20277;-72
2022/03/16 18:58:34;;;;;;;19.70;17.43;;;12.20;99.90;;;;;;10447737;28;20232;-73
2022/03/16 19:03:37;;;;;;;19.83;17.73;;;12.20;99.90;;;;;;10452600;28;20224;-72
2022/03/16 19:08:39;;;;;;;19.17;17.27;;;12.10;99.90;;;;;;10437012;28;20699;-73
2022/03/16 19:13:46;;;;;;;20.40;18.03;;;12.20;99.90;;;;;;10426856;28;20299;-73
2022/03/16 19:18:51;;;;;;;19.30;17.33;;;12.20;99.90;;;;;;10452536;28;20282;-73
2022/03/16 19:23:51;;;;;;;19.33;17.03;;;12.10;99.90;;;;;;10453589;28;20219;-72
2022/03/16 19:28:55;;;;;;;20.23;18.10;;;12.10;99.90;;;;;;10435040;28;20231;-71
2022/03/16 19:33:59;;;;;;;19.93;17.83;;;12.10;99.90;;;;;;10451222;28;20251;-72
2022/03/16 19:39:09;;;;;;;17.70;15.90;;;12.10;99.90;;;;;;10440235;28;20216;-73
2022/03/16 19:49:22;;;;;;;18.40;16.60;;;12.10;99.90;;;;;;11295133;22;20298;-73
2022/03/16 19:54:24;;;;;;;19.57;17.47;;;12.10;99.90;;;;;;10452367;28;20232;-72
2022/03/16 19:59:25;;;;;;;17.90;16.10;;;12.10;99.90;;;;;;10481025;28;20693;-73
2022/03/16 20:04:25;;;;;;;18.13;16.23;;;12.10;99.90;;;;;;10478793;28;20346;-74
2022/03/16 20:09:26;;;;;;;18.57;16.57;;;12.00;99.90;;;;;;10467544;28;20316;-74
2022/03/16 20:14:27;;;;;;;18.33;16.43;;;12.00;99.90;;;;;;10471707;28;20207;-73
2022/03/16 20:19:33;;;;;;;19.23;17.23;;;12.00;99.90;;;;;;10484476;28;20233;-73
2022/03/16 20:24:35;;;;;;;20.20;16.93;;;11.90;99.90;;;;;;10485911;28;20231;-72
2022/03/16 20:29:38;;;;;;;19.63;16.80;;;12.00;99.90;;;;;;10467736;28;20227;-73
2022/03/16 20:34:38;;;;;;;17.60;15.80;;;11.90;99.90;;;;;;10491684;28;20739;-72
2022/03/16 20:39:40;;;;;;;18.20;16.47;;;12.00;99.90;;;;;;10460120;28;20220;-71
2022/03/16 20:44:41;;;;;;;19.10;17.03;;;11.90;99.90;;;;;;10472571;28;20224;-72
2022/03/16 20:49:42;;;;;;;21.00;17.37;;;11.90;99.90;;;;;;10474473;28;20224;-74
2022/03/16 20:54:43;;;;;;;18.60;16.70;;;11.90;99.90;;;;;;10473376;28;20306;-72
2022/03/16 21:05:06;;;;;;;20.03;17.93;;;11.70;99.90;;;;;;10476159;28;20219;-75
2022/03/16 21:10:33;;;;;;;20.13;17.60;;;11.70;99.90;;;;;;10463875;28;20228;-75
2022/03/16 21:15:45;;;;;;;21.07;18.60;;;11.70;99.90;;;;;;10469578;28;20231;-73
2022/03/16 21:20:48;;;;;;;18.90;16.77;;;11.70;99.90;;;;;;10479617;28;20778;-73
2022/03/16 21:25:51;;;;;;;20.40;18.30;;;11.60;99.90;;;;;;10475906;28;20223;-75
2022/03/16 21:30:53;;;;;;;21.67;19.23;;;11.60;99.90;;;;;;10467077;28;20227;-73
2022/03/16 21:35:53;;;;;;;21.37;18.90;;;11.50;99.90;;;;;;10456595;28;20682;-74
2022/03/16 21:46:16;;;;;;;21.83;19.53;;;11.50;99.90;;;;;;10481273;28;20215;-72
2022/03/16 21:56:26;;;;;;;22.73;20.23;;;11.50;99.90;;;;;;10470467;28;20314;-71
2022/03/16 22:01:28;;;;;;;23.03;20.60;;;11.50;99.90;;;;;;10471937;28;20223;-72
2022/03/16 22:06:31;;;;;;;21.90;19.63;;;11.50;99.90;;;;;;10466922;28;20250;-71
2022/03/16 22:11:31;;;;;;;22.20;20.10;;;11.50;99.90;;;;;;10468550;28;20669;-72
2022/03/16 22:16:33;;;;;;;24.13;21.63;;;11.50;99.90;;;;;;10459641;28;20251;-71
2022/03/16 22:21:37;;;;;;;24.03;21.47;;;11.50;99.90;;;;;;10461611;28;20218;-71
2022/03/16 22:26:39;;;;;;;23.63;21.23;;;11.40;99.90;;;;;;10480462;28;20224;-72
2022/03/16 22:31:40;;;;;;;24.33;21.63;;;11.30;99.90;;;;;;10477086;28;20309;-72
2022/03/16 22:36:41;;;;;;;23.87;21.37;;;11.30;99.90;;;;;;10461477;28;20366;-71
2022/03/16 22:41:43;;;;;;;25.00;22.30;;;11.30;99.90;;;;;;10482569;28;20219;-70
2022/03/16 22:46:46;;;;;;;24.17;21.57;;;11.30;99.90;;;;;;10487506;28;20684;-68
2022/03/16 22:51:49;;;;;;;25.40;22.73;;;11.30;99.90;;;;;;10464379;28;20647;-73
2022/03/16 22:56:51;;;;;;;25.43;22.77;;;11.30;99.90;;;;;;10497019;28;20587;-73
2022/03/16 23:01:52;;;;;;;24.83;22.23;;;11.20;99.90;;;;;;10485045;28;20268;-73
2022/03/16 23:06:56;;;;;;;26.07;23.30;;;11.20;99.90;;;;;;10490851;28;20268;-72
2022/03/16 23:12:01;;;;;;;23.93;21.47;;;11.20;99.90;;;;;;10483348;28;20236;-72
2022/03/16 23:17:04;;;;;;;25.40;22.80;;;11.20;99.90;;;;;;10482629;28;20212;-74
2022/03/16 23:22:10;;;;;;;26.90;23.80;;;11.20;99.90;;;;;;10462541;28;20229;-71
2022/03/16 23:27:11;;;;;;;27.70;23.40;;;11.20;99.90;;;;;;10486993;28;20637;-71
2022/03/16 23:32:11;;;;;;;25.70;23.10;;;11.20;99.90;;;;;;10481820;28;20270;-71
2022/03/16 23:37:12;;;;;;;25.73;22.93;;;11.20;99.90;;;;;;10476060;28;20796;-72
2022/03/16 23:42:13;;;;;;;26.07;23.33;;;11.20;99.90;;;;;;10482421;28;20223;-70
2022/03/16 23:47:16;;;;;;;26.17;23.57;;;11.20;99.90;;;;;;10464182;28;20591;-72
2022/03/16 23:52:19;;;;;;;25.83;22.73;;;11.20;99.90;;;;;;10482247;28;20227;-70
2022/03/16 23:57:22;;;;;;;25.33;22.60;;;11.20;99.90;;;;;;10456439;28;20239;-70
